Sun Maiden — CZ4548 — position and weather

sailwx.info

Track history (hours):
 
Tides and Currents Weather Stations Pressure Air Temp Water Temp Dewpoint Dewpoint Depression Visibility Wind Speed Wind Dir Waves Ship Positions

Sun Maiden

Last reported at 2017-Dec-11 11:30 UTC. Time now 2017-Dec-11 11:37 UTC.
Position N 48°56' W 125°32'.

Length 30 m; draft 2.8 m.

Type: Fishing. MMSI: 316003459.

Date/timePositionNaut miles runAvg speedWind from/ knotsBaromVisibWave heightAir tempDewpointWater temp
2017-Dec-11 11:30N 48°56' W 125°32'0 0.0
2017-Dec-11 11:00N 48°56' W 125°32'0 0.0
2017-Dec-11 10:30N 48°56' W 125°32'0 0.0
2017-Dec-11 10:00N 48°56' W 125°32'0 0.1
2017-Dec-11 09:30N 48°56' W 125°32'0 0.0
2017-Dec-11 09:00N 48°56' W 125°32'0 0.1
2017-Dec-11 08:30N 48°56' W 125°32'0 0.1
2017-Dec-11 08:00N 48°56' W 125°32'0 0.1
2017-Dec-11 07:30N 48°56' W 125°32'0 0.0
2017-Dec-11 07:00N 48°56' W 125°32'0 0.1
2017-Dec-11 06:30N 48°56' W 125°32'0 0.1
2017-Dec-11 06:00N 48°56' W 125°32'0 0.1
2017-Dec-11 05:30N 48°56' W 125°32'0 0.0
2017-Dec-11 05:00N 48°56' W 125°32'0 0.0
2017-Dec-11 04:30N 48°56' W 125°32'0 0.1
2017-Dec-11 04:00N 48°56' W 125°32'0 0.1
2017-Dec-11 03:30N 48°56' W 125°32'0 0.0
2017-Dec-11 03:00N 48°56' W 125°32'0 0.0
2017-Dec-11 02:30N 48°56' W 125°32'0 0.1
2017-Dec-11 02:00N 48°56' W 125°32'0 0.1
2017-Dec-11 01:30N 48°56' W 125°32'0 0.2
2017-Dec-11 01:00N 48°56' W 125°32'0 0.0
2017-Dec-11 00:30N 48°56' W 125°32'0 0.0
2017-Dec-11 00:00N 48°56' W 125°32'0 0.0
2017-Dec-10 23:30N 48°56' W 125°32'3 5.2
2017-Dec-10 23:00N 48°54' W 125°33'5 9.1
2017-Dec-10 22:30N 48°50' W 125°37'4 8.8
2017-Dec-10 22:00N 48°46' W 125°41'4 8.2
2017-Dec-10 21:30N 48°43' W 125°44'3 7.0
2017-Dec-10 21:00N 48°40' W 125°46'4 7.8
2017-Dec-10 20:30N 48°37' W 125°50'4 8.4
2017-Dec-10 20:00N 48°34' W 125°54'10 7.0
2017-Dec-10 18:37N 48°26' W 126°03'1 2.6
2017-Dec-10 18:24N 48°26' W 126°04'2 2.1
2017-Dec-10 17:26N 48°24' W 126°03'2 2.2
2017-Dec-10 16:36N 48°26' W 126°04'1 4.0
2017-Dec-10 16:26N 48°26' W 126°04'1 1.9
2017-Dec-10 16:00N 48°26' W 126°03'2 3.5
2017-Dec-10 15:27N 48°24' W 126°02'2 3.6
2017-Dec-10 14:52N 48°22' W 126°00'13 0.6
2017-Dec-09 18:15N 48°17' W 125°42'0 0.1
2017-Dec-09 18:00N 48°17' W 125°42'1 1.9
2017-Dec-09 17:29N 48°17' W 125°43'4 2.1
2017-Dec-09 15:42N 48°16' W 125°48'0 1.9
2017-Dec-09 15:30N 48°16' W 125°48'16 1.2
2017-Dec-09 02:08N 48°26' W 126°07'1 6.9
2017-Dec-09 01:56N 48°26' W 126°05'3 0.5
2017-Dec-08 19:49N 48°24' W 126°02'6 8.5
2017-Dec-08 19:06N 48°20' W 125°54'1 8.7
2017-Dec-08 18:58N 48°20' W 125°53'7 2.6
2017-Dec-08 16:22N 48°27' W 125°55'2 5.1
2017-Dec-08 15:57N 48°25' W 125°54'39 6.1
2017-Dec-08 09:35N 48°55' W 126°31'1 6.3
2017-Dec-08 09:24N 48°56' W 126°31'3 6.3
2017-Dec-08 08:58N 48°58' W 126°33'3 5.7
2017-Dec-08 08:30N 49°00' W 126°36'5 5.8
2017-Dec-08 07:34N 49°05' W 126°40'1 6.2
2017-Dec-08 07:24N 49°06' W 126°41'2 6.0
2017-Dec-08 07:00N 49°08' W 126°43'11 6.3
2017-Dec-08 05:17N 49°16' W 126°53'2 7.0
2017-Dec-08 05:00N 49°17' W 126°55'3 6.4
2017-Dec-08 04:29N 49°20' W 126°58'3 6.3
2017-Dec-08 04:01N 49°22' W 127°02'0 0.3
2017-Dec-08 03:23N 49°22' W 127°02'1 2.0
2017-Dec-08 02:59N 49°22' W 127°01'2 3.3
2017-Dec-08 02:22N 49°20' W 126°59'6 5.4
2017-Dec-08 01:16N 49°22' W 127°07'3 6.7
2017-Dec-08 00:50N 49°25' W 127°10'2 7.2
2017-Dec-08 00:30N 49°27' W 127°12'4 7.2
2017-Dec-07 23:56N 49°31' W 127°14'8 1.0
2017-Dec-07 15:38N 49°37' W 127°21'19 2.0
2017-Dec-07 05:47N 49°25' W 126°58'3 9.7
2017-Dec-07 05:26N 49°23' W 126°54'4 9.8
2017-Dec-07 05:00N 49°21' W 126°49'5 9.7
2017-Dec-07 04:30N 49°18' W 126°42'5 9.2
2017-Dec-07 04:00N 49°16' W 126°36'5 9.3
2017-Dec-07 03:29N 49°14' W 126°30'9 9.4
2017-Dec-07 02:32N 49°09' W 126°18'4 9.3
2017-Dec-07 02:04N 49°07' W 126°12'1 9.4
2017-Dec-07 01:56N 49°07' W 126°10'4 9.2
2017-Dec-07 01:30N 49°05' W 126°05'5 9.1
2017-Dec-07 01:00N 49°03' W 125°58'5 9.3
2017-Dec-07 00:30N 49°01' W 125°52'5 9.4
2017-Dec-07 00:00N 48°58' W 125°46'5 9.0
2017-Dec-06 23:30N 48°56' W 125°40'5 9.0
2017-Dec-06 23:00N 48°55' W 125°34'  
Track history (hours):
 
Tides and Currents Weather Stations Pressure Air Temp Water Temp Dewpoint Dewpoint Depression Visibility Wind Speed Wind Dir Waves Ship Positions

Sun Maiden

Last reported at 2017-Dec-11 11:30 UTC. Time now 2017-Dec-11 11:37 UTC.
Position N 48°56' W 125°32'.

Length 30 m; draft 2.8 m.

Type: Fishing. MMSI: 316003459.

Date/timePositionNaut miles runAvg speedWind from/ knotsBaromVisibWave heightAir tempDewpointWater temp
2017-Dec-11 11:30N 48°56' W 125°32'0 0.0
2017-Dec-11 11:00N 48°56' W 125°32'0 0.0
2017-Dec-11 10:30N 48°56' W 125°32'0 0.0
2017-Dec-11 10:00N 48°56' W 125°32'0 0.1
2017-Dec-11 09:30N 48°56' W 125°32'0 0.0
2017-Dec-11 09:00N 48°56' W 125°32'0 0.1
2017-Dec-11 08:30N 48°56' W 125°32'0 0.1
2017-Dec-11 08:00N 48°56' W 125°32'0 0.1
2017-Dec-11 07:30N 48°56' W 125°32'0 0.0
2017-Dec-11 07:00N 48°56' W 125°32'0 0.1
2017-Dec-11 06:30N 48°56' W 125°32'0 0.1
2017-Dec-11 06:00N 48°56' W 125°32'0 0.1
2017-Dec-11 05:30N 48°56' W 125°32'0 0.0
2017-Dec-11 05:00N 48°56' W 125°32'0 0.0
2017-Dec-11 04:30N 48°56' W 125°32'0 0.1
2017-Dec-11 04:00N 48°56' W 125°32'0 0.1
2017-Dec-11 03:30N 48°56' W 125°32'0 0.0
2017-Dec-11 03:00N 48°56' W 125°32'0 0.0
2017-Dec-11 02:30N 48°56' W 125°32'0 0.1
2017-Dec-11 02:00N 48°56' W 125°32'0 0.1
2017-Dec-11 01:30N 48°56' W 125°32'0 0.2
2017-Dec-11 01:00N 48°56' W 125°32'0 0.0
2017-Dec-11 00:30N 48°56' W 125°32'0 0.0
2017-Dec-11 00:00N 48°56' W 125°32'0 0.0
2017-Dec-10 23:30N 48°56' W 125°32'3 5.2
2017-Dec-10 23:00N 48°54' W 125°33'5 9.1
2017-Dec-10 22:30N 48°50' W 125°37'4 8.8
2017-Dec-10 22:00N 48°46' W 125°41'4 8.2
2017-Dec-10 21:30N 48°43' W 125°44'3 7.0
2017-Dec-10 21:00N 48°40' W 125°46'4 7.8
2017-Dec-10 20:30N 48°37' W 125°50'4 8.4
2017-Dec-10 20:00N 48°34' W 125°54'10 7.0
2017-Dec-10 18:37N 48°26' W 126°03'1 2.6
2017-Dec-10 18:24N 48°26' W 126°04'2 2.1
2017-Dec-10 17:26N 48°24' W 126°03'2 2.2
2017-Dec-10 16:36N 48°26' W 126°04'1 4.0
2017-Dec-10 16:26N 48°26' W 126°04'1 1.9
2017-Dec-10 16:00N 48°26' W 126°03'2 3.5
2017-Dec-10 15:27N 48°24' W 126°02'2 3.6
2017-Dec-10 14:52N 48°22' W 126°00'13 0.6
2017-Dec-09 18:15N 48°17' W 125°42'0 0.1
2017-Dec-09 18:00N 48°17' W 125°42'1 1.9
2017-Dec-09 17:29N 48°17' W 125°43'4 2.1
2017-Dec-09 15:42N 48°16' W 125°48'0 1.9
2017-Dec-09 15:30N 48°16' W 125°48'16 1.2
2017-Dec-09 02:08N 48°26' W 126°07'1 6.9
2017-Dec-09 01:56N 48°26' W 126°05'3 0.5
2017-Dec-08 19:49N 48°24' W 126°02'6 8.5
2017-Dec-08 19:06N 48°20' W 125°54'1 8.7
2017-Dec-08 18:58N 48°20' W 125°53'7 2.6
2017-Dec-08 16:22N 48°27' W 125°55'2 5.1
2017-Dec-08 15:57N 48°25' W 125°54'39 6.1
2017-Dec-08 09:35N 48°55' W 126°31'1 6.3
2017-Dec-08 09:24N 48°56' W 126°31'3 6.3
2017-Dec-08 08:58N 48°58' W 126°33'3 5.7
2017-Dec-08 08:30N 49°00' W 126°36'5 5.8
2017-Dec-08 07:34N 49°05' W 126°40'1 6.2
2017-Dec-08 07:24N 49°06' W 126°41'2 6.0
2017-Dec-08 07:00N 49°08' W 126°43'11 6.3
2017-Dec-08 05:17N 49°16' W 126°53'2 7.0
2017-Dec-08 05:00N 49°17' W 126°55'3 6.4
2017-Dec-08 04:29N 49°20' W 126°58'3 6.3
2017-Dec-08 04:01N 49°22' W 127°02'0 0.3
2017-Dec-08 03:23N 49°22' W 127°02'1 2.0
2017-Dec-08 02:59N 49°22' W 127°01'2 3.3
2017-Dec-08 02:22N 49°20' W 126°59'6 5.4
2017-Dec-08 01:16N 49°22' W 127°07'3 6.7
2017-Dec-08 00:50N 49°25' W 127°10'2 7.2
2017-Dec-08 00:30N 49°27' W 127°12'4 7.2
2017-Dec-07 23:56N 49°31' W 127°14'8 1.0
2017-Dec-07 15:38N 49°37' W 127°21'19 2.0
2017-Dec-07 05:47N 49°25' W 126°58'3 9.7
2017-Dec-07 05:26N 49°23' W 126°54'4 9.8
2017-Dec-07 05:00N 49°21' W 126°49'5 9.7
2017-Dec-07 04:30N 49°18' W 126°42'5 9.2
2017-Dec-07 04:00N 49°16' W 126°36'5 9.3
2017-Dec-07 03:29N 49°14' W 126°30'9 9.4
2017-Dec-07 02:32N 49°09' W 126°18'4 9.3
2017-Dec-07 02:04N 49°07' W 126°12'1 9.4
2017-Dec-07 01:56N 49°07' W 126°10'4 9.2
2017-Dec-07 01:30N 49°05' W 126°05'5 9.1
2017-Dec-07 01:00N 49°03' W 125°58'5 9.3
2017-Dec-07 00:30N 49°01' W 125°52'5 9.4
2017-Dec-07 00:00N 48°58' W 125°46'5 9.0
2017-Dec-06 23:30N 48°56' W 125°40'5 9.0
2017-Dec-06 23:00N 48°55' W 125°34'  

Dump ship's entire track history